Terminal Aerodrome Forecast
Issued by NWS

Home | Current Version | Previous Version | Text Only | Print | Product List | Glossary On
Versions: 1 2 3 4 5 6 7 8 9 10 11 12 13 14
045
FTUS42 TJSJ 241740
TAFJSJ
TAF
TJSJ 241740Z 2418/2518 08013G19KT P6SM FEW035 SCT070 SCT090
     FM242200 09010KT P6SM VCSH SCT025 SCT040
     FM251300 08012KT P6SM SCT025=

USA.gov is the U.S. government's official web portal to all federal, state and local government web resources and services.